sensor_id;sensor_type;location;lat;lon;timestamp;P1;durP1;ratioP1;P2;durP2;ratioP2
64877;SDS011;51370;45.144;36.784;2022-07-21T00:01:47;1.30;;;1.20;;
64877;SDS011;51370;45.144;36.784;2022-07-21T00:04:15;2.13;;;1.60;;
64877;SDS011;51370;45.144;36.784;2022-07-21T00:06:41;5.63;;;1.30;;
64877;SDS011;51370;45.144;36.784;2022-07-21T00:09:09;5.15;;;1.30;;
64877;SDS011;51370;45.144;36.784;2022-07-21T00:11:36;1.60;;;1.10;;
64877;SDS011;51370;45.144;36.784;2022-07-21T00:14:02;1.35;;;1.25;;
64877;SDS011;51370;45.144;36.784;2022-07-21T00:16:29;1.85;;;1.27;;
64877;SDS011;51370;45.144;36.784;2022-07-21T00:18:55;3.85;;;1.73;;
64877;SDS011;51370;45.144;36.784;2022-07-21T00:21:22;2.40;;;1.30;;
64877;SDS011;51370;45.144;36.784;2022-07-21T00:23:48;2.15;;;1.10;;
64877;SDS011;51370;45.144;36.784;2022-07-21T00:26:14;3.42;;;1.20;;
64877;SDS011;51370;45.144;36.784;2022-07-21T00:28:40;2.28;;;1.35;;
64877;SDS011;51370;45.144;36.784;2022-07-21T00:31:07;2.10;;;0.90;;
64877;SDS011;51370;45.144;36.784;2022-07-21T00:33:33;1.85;;;1.20;;
64877;SDS011;51370;45.144;36.784;2022-07-21T00:35:59;6.00;;;1.45;;
64877;SDS011;51370;45.144;36.784;2022-07-21T00:38:25;2.75;;;1.13;;
64877;SDS011;51370;45.144;36.784;2022-07-21T00:40:53;2.55;;;1.42;;
64877;SDS011;51370;45.144;36.784;2022-07-21T00:43:20;1.17;;;0.80;;
64877;SDS011;51370;45.144;36.784;2022-07-21T00:45:46;1.90;;;1.48;;
64877;SDS011;51370;45.144;36.784;2022-07-21T00:48:12;2.42;;;1.58;;
64877;SDS011;51370;45.144;36.784;2022-07-21T00:50:39;2.15;;;1.10;;
64877;SDS011;51370;45.144;36.784;2022-07-21T00:53:05;3.50;;;1.30;;
64877;SDS011;51370;45.144;36.784;2022-07-21T00:55:31;2.05;;;1.25;;
64877;SDS011;51370;45.144;36.784;2022-07-21T00:57:57;1.05;;;0.90;;
64877;SDS011;51370;45.144;36.784;2022-07-21T01:00:26;3.10;;;1.95;;
64877;SDS011;51370;45.144;36.784;2022-07-21T01:02:54;1.80;;;1.15;;
64877;SDS011;51370;45.144;36.784;2022-07-21T01:05:22;0.90;;;0.90;;
64877;SDS011;51370;45.144;36.784;2022-07-21T01:07:49;1.20;;;1.10;;
64877;SDS011;51370;45.144;36.784;2022-07-21T01:10:18;1.85;;;1.33;;
64877;SDS011;51370;45.144;36.784;2022-07-21T01:12:47;0.70;;;0.70;;
64877;SDS011;51370;45.144;36.784;2022-07-21T01:15:14;3.25;;;1.75;;
64877;SDS011;51370;45.144;36.784;2022-07-21T01:17:43;2.15;;;1.13;;
64877;SDS011;51370;45.144;36.784;2022-07-21T01:20:34;1.60;;;1.05;;
64877;SDS011;51370;45.144;36.784;2022-07-21T01:23:01;1.88;;;1.50;;
64877;SDS011;51370;45.144;36.784;2022-07-21T01:25:28;2.70;;;1.67;;
64877;SDS011;51370;45.144;36.784;2022-07-21T01:27:54;2.25;;;1.52;;
64877;SDS011;51370;45.144;36.784;2022-07-21T01:30:20;1.33;;;1.23;;
64877;SDS011;51370;45.144;36.784;2022-07-21T01:32:47;2.65;;;1.60;;
64877;SDS011;51370;45.144;36.784;2022-07-21T01:35:14;2.28;;;1.38;;
64877;SDS011;51370;45.144;36.784;2022-07-21T01:37:43;8.68;;;1.73;;
64877;SDS011;51370;45.144;36.784;2022-07-21T01:40:11;1.95;;;1.50;;
64877;SDS011;51370;45.144;36.784;2022-07-21T01:42:57;1.63;;;1.40;;
64877;SDS011;51370;45.144;36.784;2022-07-21T01:45:23;1.48;;;1.30;;
64877;SDS011;51370;45.144;36.784;2022-07-21T01:47:49;2.83;;;1.80;;
64877;SDS011;51370;45.144;36.784;2022-07-21T01:50:16;2.88;;;1.50;;
64877;SDS011;51370;45.144;36.784;2022-07-21T01:52:44;3.33;;;1.38;;
64877;SDS011;51370;45.144;36.784;2022-07-21T01:55:11;2.22;;;1.55;;
64877;SDS011;51370;45.144;36.784;2022-07-21T01:57:37;1.55;;;1.42;;
64877;SDS011;51370;45.144;36.784;2022-07-21T02:00:03;1.85;;;1.40;;
64877;SDS011;51370;45.144;36.784;2022-07-21T02:02:32;2.58;;;1.52;;
64877;SDS011;51370;45.144;36.784;2022-07-21T02:04:58;2.22;;;1.80;;
64877;SDS011;51370;45.144;36.784;2022-07-21T02:07:24;3.33;;;1.27;;
64877;SDS011;51370;45.144;36.784;2022-07-21T02:09:50;5.38;;;1.33;;
64877;SDS011;51370;45.144;36.784;2022-07-21T02:12:16;2.33;;;1.65;;
64877;SDS011;51370;45.144;36.784;2022-07-21T02:14:42;2.10;;;1.73;;
64877;SDS011;51370;45.144;36.784;2022-07-21T02:17:09;3.00;;;1.55;;
64877;SDS011;51370;45.144;36.784;2022-07-21T02:19:36;1.70;;;1.48;;
64877;SDS011;51370;45.144;36.784;2022-07-21T02:22:02;2.25;;;1.48;;
64877;SDS011;51370;45.144;36.784;2022-07-21T02:24:29;1.88;;;1.48;;
64877;SDS011;51370;45.144;36.784;2022-07-21T02:26:55;5.05;;;1.70;;
64877;SDS011;51370;45.144;36.784;2022-07-21T02:29:21;2.35;;;1.80;;
64877;SDS011;51370;45.144;36.784;2022-07-21T02:31:48;2.35;;;1.58;;
64877;SDS011;51370;45.144;36.784;2022-07-21T02:34:14;1.63;;;1.52;;
64877;SDS011;51370;45.144;36.784;2022-07-21T02:36:40;5.97;;;2.10;;
64877;SDS011;51370;45.144;36.784;2022-07-21T02:39:07;1.85;;;1.58;;
64877;SDS011;51370;45.144;36.784;2022-07-21T02:41:33;2.88;;;1.80;;
64877;SDS011;51370;45.144;36.784;2022-07-21T02:43:59;2.78;;;1.83;;
64877;SDS011;51370;45.144;36.784;2022-07-21T02:46:24;3.42;;;1.52;;
64877;SDS011;51370;45.144;36.784;2022-07-21T02:48:51;4.53;;;2.15;;
64877;SDS011;51370;45.144;36.784;2022-07-21T02:51:17;3.22;;;1.95;;
64877;SDS011;51370;45.144;36.784;2022-07-21T02:53:43;3.60;;;2.20;;
64877;SDS011;51370;45.144;36.784;2022-07-21T02:56:09;5.68;;;2.00;;
64877;SDS011;51370;45.144;36.784;2022-07-21T02:58:35;1.80;;;1.40;;
64877;SDS011;51370;45.144;36.784;2022-07-21T03:01:03;2.47;;;1.90;;
64877;SDS011;51370;45.144;36.784;2022-07-21T03:03:31;2.25;;;1.80;;
64877;SDS011;51370;45.144;36.784;2022-07-21T03:06:00;2.20;;;1.80;;
64877;SDS011;51370;45.144;36.784;2022-07-21T03:08:27;2.45;;;1.88;;
64877;SDS011;51370;45.144;36.784;2022-07-21T03:10:54;3.38;;;1.88;;
64877;SDS011;51370;45.144;36.784;2022-07-21T03:13:20;4.72;;;2.25;;
64877;SDS011;51370;45.144;36.784;2022-07-21T03:15:47;5.80;;;2.20;;
64877;SDS011;51370;45.144;36.784;2022-07-21T03:18:13;5.90;;;1.88;;
64877;SDS011;51370;45.144;36.784;2022-07-21T03:20:41;3.15;;;2.30;;
64877;SDS011;51370;45.144;36.784;2022-07-21T03:23:08;2.58;;;1.92;;
64877;SDS011;51370;45.144;36.784;2022-07-21T03:25:34;4.72;;;2.00;;
64877;SDS011;51370;45.144;36.784;2022-07-21T03:28:00;2.90;;;1.90;;
64877;SDS011;51370;45.144;36.784;2022-07-21T03:30:27;10.82;;;2.38;;
64877;SDS011;51370;45.144;36.784;2022-07-21T03:32:54;2.17;;;1.92;;
64877;SDS011;51370;45.144;36.784;2022-07-21T03:35:20;3.22;;;1.92;;
64877;SDS011;51370;45.144;36.784;2022-07-21T03:37:48;3.65;;;2.47;;
64877;SDS011;51370;45.144;36.784;2022-07-21T03:40:17;2.83;;;2.15;;
64877;SDS011;51370;45.144;36.784;2022-07-21T03:42:49;4.03;;;2.80;;
64877;SDS011;51370;45.144;36.784;2022-07-21T03:45:19;4.53;;;2.53;;
64877;SDS011;51370;45.144;36.784;2022-07-21T03:47:47;6.25;;;2.28;;
64877;SDS011;51370;45.144;36.784;2022-07-21T03:50:13;5.45;;;2.53;;
64877;SDS011;51370;45.144;36.784;2022-07-21T03:52:41;4.20;;;2.70;;
64877;SDS011;51370;45.144;36.784;2022-07-21T03:55:07;3.20;;;2.22;;
64877;SDS011;51370;45.144;36.784;2022-07-21T03:57:44;3.90;;;2.10;;
64877;SDS011;51370;45.144;36.784;2022-07-21T04:00:13;4.07;;;2.22;;
64877;SDS011;51370;45.144;36.784;2022-07-21T04:02:41;3.08;;;2.25;;
64877;SDS011;51370;45.144;36.784;2022-07-21T04:05:11;4.72;;;2.13;;
64877;SDS011;51370;45.144;36.784;2022-07-21T04:07:38;2.33;;;1.80;;
64877;SDS011;51370;45.144;36.784;2022-07-21T04:10:06;2.00;;;1.80;;
64877;SDS011;51370;45.144;36.784;2022-07-21T04:12:33;2.28;;;1.65;;
64877;SDS011;51370;45.144;36.784;2022-07-21T04:15:00;4.32;;;2.47;;
64877;SDS011;51370;45.144;36.784;2022-07-21T04:17:26;3.30;;;2.20;;
64877;SDS011;51370;45.144;36.784;2022-07-21T04:19:52;3.67;;;2.40;;
64877;SDS011;51370;45.144;36.784;2022-07-21T04:22:18;3.10;;;1.75;;
64877;SDS011;51370;45.144;36.784;2022-07-21T04:24:44;3.88;;;2.22;;
64877;SDS011;51370;45.144;36.784;2022-07-21T04:27:10;2.40;;;1.83;;
64877;SDS011;51370;45.144;36.784;2022-07-21T04:29:36;4.97;;;2.10;;
64877;SDS011;51370;45.144;36.784;2022-07-21T04:32:02;6.85;;;2.17;;
64877;SDS011;51370;45.144;36.784;2022-07-21T04:34:29;3.03;;;2.45;;
64877;SDS011;51370;45.144;36.784;2022-07-21T04:36:55;3.03;;;2.28;;
64877;SDS011;51370;45.144;36.784;2022-07-21T04:39:21;2.60;;;2.22;;
64877;SDS011;51370;45.144;36.784;2022-07-21T04:41:47;3.70;;;2.38;;
64877;SDS011;51370;45.144;36.784;2022-07-21T04:44:13;3.55;;;2.17;;
64877;SDS011;51370;45.144;36.784;2022-07-21T04:46:40;2.78;;;2.22;;
64877;SDS011;51370;45.144;36.784;2022-07-21T04:49:05;3.10;;;2.47;;
64877;SDS011;51370;45.144;36.784;2022-07-21T04:51:32;5.45;;;2.70;;
64877;SDS011;51370;45.144;36.784;2022-07-21T04:53:58;5.80;;;2.40;;
64877;SDS011;51370;45.144;36.784;2022-07-21T04:56:24;3.67;;;2.03;;
64877;SDS011;51370;45.144;36.784;2022-07-21T04:58:50;2.05;;;1.58;;
64877;SDS011;51370;45.144;36.784;2022-07-21T05:01:16;3.33;;;2.47;;
64877;SDS011;51370;45.144;36.784;2022-07-21T05:03:43;3.60;;;2.17;;
64877;SDS011;51370;45.144;36.784;2022-07-21T05:06:10;3.15;;;2.42;;
64877;SDS011;51370;45.144;36.784;2022-07-21T05:08:37;3.22;;;2.08;;
64877;SDS011;51370;45.144;36.784;2022-07-21T05:11:03;2.97;;;2.45;;
64877;SDS011;51370;45.144;36.784;2022-07-21T05:13:30;2.65;;;2.20;;
64877;SDS011;51370;45.144;36.784;2022-07-21T05:15:56;3.53;;;1.50;;
64877;SDS011;51370;45.144;36.784;2022-07-21T05:18:22;2.13;;;1.92;;
64877;SDS011;51370;45.144;36.784;2022-07-21T05:20:48;4.30;;;2.58;;
64877;SDS011;51370;45.144;36.784;2022-07-21T05:23:14;2.40;;;2.10;;
64877;SDS011;51370;45.144;36.784;2022-07-21T05:25:40;4.47;;;2.20;;
64877;SDS011;51370;45.144;36.784;2022-07-21T05:28:06;3.35;;;2.08;;
64877;SDS011;51370;45.144;36.784;2022-07-21T05:30:32;5.40;;;2.50;;
64877;SDS011;51370;45.144;36.784;2022-07-21T05:32:58;2.42;;;2.13;;
64877;SDS011;51370;45.144;36.784;2022-07-21T05:35:24;2.35;;;1.83;;
64877;SDS011;51370;45.144;36.784;2022-07-21T05:37:50;2.95;;;2.30;;
64877;SDS011;51370;45.144;36.784;2022-07-21T05:40:16;3.30;;;2.17;;
64877;SDS011;51370;45.144;36.784;2022-07-21T05:42:42;3.88;;;2.33;;
64877;SDS011;51370;45.144;36.784;2022-07-21T05:45:09;4.47;;;2.40;;
64877;SDS011;51370;45.144;36.784;2022-07-21T05:47:36;2.35;;;1.98;;
64877;SDS011;51370;45.144;36.784;2022-07-21T05:50:02;2.72;;;1.83;;
64877;SDS011;51370;45.144;36.784;2022-07-21T05:52:28;2.58;;;2.28;;
64877;SDS011;51370;45.144;36.784;2022-07-21T05:54:54;3.30;;;1.67;;
64877;SDS011;51370;45.144;36.784;2022-07-21T05:57:21;2.67;;;2.33;;
64877;SDS011;51370;45.144;36.784;2022-07-21T05:59:47;4.25;;;2.17;;
64877;SDS011;51370;45.144;36.784;2022-07-21T06:02:13;2.95;;;1.95;;
64877;SDS011;51370;45.144;36.784;2022-07-21T06:04:39;4.20;;;2.78;;
64877;SDS011;51370;45.144;36.784;2022-07-21T06:07:06;3.00;;;2.60;;
64877;SDS011;51370;45.144;36.784;2022-07-21T06:09:32;2.83;;;2.35;;
64877;SDS011;51370;45.144;36.784;2022-07-21T06:11:58;2.75;;;1.90;;
64877;SDS011;51370;45.144;36.784;2022-07-21T06:14:24;3.25;;;2.20;;
64877;SDS011;51370;45.144;36.784;2022-07-21T06:16:50;4.63;;;1.33;;
64877;SDS011;51370;45.144;36.784;2022-07-21T06:19:17;3.40;;;1.58;;
64877;SDS011;51370;45.144;36.784;2022-07-21T06:21:43;3.40;;;1.20;;
64877;SDS011;51370;45.144;36.784;2022-07-21T06:24:09;2.10;;;1.08;;
64877;SDS011;51370;45.144;36.784;2022-07-21T06:26:36;4.45;;;1.70;;
64877;SDS011;51370;45.144;36.784;2022-07-21T06:29:04;7.75;;;1.55;;
64877;SDS011;51370;45.144;36.784;2022-07-21T06:31:31;8.70;;;1.52;;
64877;SDS011;51370;45.144;36.784;2022-07-21T06:33:58;4.55;;;1.10;;
64877;SDS011;51370;45.144;36.784;2022-07-21T06:36:24;5.05;;;1.40;;
64877;SDS011;51370;45.144;36.784;2022-07-21T06:38:50;2.50;;;1.13;;
64877;SDS011;51370;45.144;36.784;2022-07-21T06:41:16;3.92;;;1.10;;
64877;SDS011;51370;45.144;36.784;2022-07-21T06:43:42;2.35;;;1.10;;
64877;SDS011;51370;45.144;36.784;2022-07-21T06:46:08;2.92;;;1.05;;
64877;SDS011;51370;45.144;36.784;2022-07-21T06:48:34;1.42;;;0.70;;
64877;SDS011;51370;45.144;36.784;2022-07-21T06:51:00;3.05;;;1.00;;
64877;SDS011;51370;45.144;36.784;2022-07-21T06:53:26;1.95;;;0.90;;
64877;SDS011;51370;45.144;36.784;2022-07-21T06:55:52;5.32;;;0.95;;
64877;SDS011;51370;45.144;36.784;2022-07-21T06:58:19;2.08;;;0.85;;
64877;SDS011;51370;45.144;36.784;2022-07-21T07:00:47;3.40;;;0.70;;
64877;SDS011;51370;45.144;36.784;2022-07-21T07:03:15;1.02;;;0.47;;
64877;SDS011;51370;45.144;36.784;2022-07-21T07:05:43;2.42;;;0.70;;
64877;SDS011;51370;45.144;36.784;2022-07-21T07:08:11;1.23;;;0.70;;
64877;SDS011;51370;45.144;36.784;2022-07-21T07:10:41;1.55;;;0.88;;
64877;SDS011;51370;45.144;36.784;2022-07-21T07:13:08;0.85;;;0.55;;
64877;SDS011;51370;45.144;36.784;2022-07-21T07:15:35;2.20;;;0.45;;
64877;SDS011;51370;45.144;36.784;2022-07-21T07:18:01;4.22;;;0.90;;
64877;SDS011;51370;45.144;36.784;2022-07-21T07:20:27;3.53;;;0.52;;
64877;SDS011;51370;45.144;36.784;2022-07-21T07:22:53;1.83;;;0.55;;
64877;SDS011;51370;45.144;36.784;2022-07-21T07:25:19;2.38;;;0.60;;
64877;SDS011;51370;45.144;36.784;2022-07-21T07:27:46;0.60;;;0.60;;
64877;SDS011;51370;45.144;36.784;2022-07-21T07:30:15;3.05;;;0.65;;
64877;SDS011;51370;45.144;36.784;2022-07-21T07:32:42;0.77;;;0.50;;
64877;SDS011;51370;45.144;36.784;2022-07-21T07:35:09;1.30;;;0.63;;
64877;SDS011;51370;45.144;36.784;2022-07-21T07:37:37;1.55;;;1.00;;
64877;SDS011;51370;45.144;36.784;2022-07-21T07:40:05;2.85;;;0.70;;
64877;SDS011;51370;45.144;36.784;2022-07-21T07:42:34;1.35;;;0.90;;
64877;SDS011;51370;45.144;36.784;2022-07-21T07:45:02;1.17;;;1.10;;
64877;SDS011;51370;45.144;36.784;2022-07-21T07:47:29;0.98;;;0.90;;
64877;SDS011;51370;45.144;36.784;2022-07-21T07:49:55;1.75;;;1.20;;
64877;SDS011;51370;45.144;36.784;2022-07-21T07:52:21;3.20;;;1.17;;
64877;SDS011;51370;45.144;36.784;2022-07-21T07:54:49;1.90;;;1.15;;
64877;SDS011;51370;45.144;36.784;2022-07-21T07:57:15;12.68;;;1.95;;
64877;SDS011;51370;45.144;36.784;2022-07-21T07:59:41;1.05;;;0.98;;
64877;SDS011;51370;45.144;36.784;2022-07-21T08:02:07;0.90;;;0.90;;
64877;SDS011;51370;45.144;36.784;2022-07-21T08:04:33;2.67;;;1.42;;
64877;SDS011;51370;45.144;36.784;2022-07-21T08:07:01;1.20;;;0.90;;
64877;SDS011;51370;45.144;36.784;2022-07-21T08:09:29;3.63;;;1.15;;
64877;SDS011;51370;45.144;36.784;2022-07-21T08:11:57;2.05;;;1.13;;
64877;SDS011;51370;45.144;36.784;2022-07-21T08:14:23;2.95;;;1.30;;
64877;SDS011;51370;45.144;36.784;2022-07-21T08:16:49;4.85;;;1.27;;
64877;SDS011;51370;45.144;36.784;2022-07-21T08:19:15;3.08;;;1.50;;
64877;SDS011;51370;45.144;36.784;2022-07-21T08:21:41;2.55;;;1.30;;
64877;SDS011;51370;45.144;36.784;2022-07-21T08:24:07;2.22;;;1.77;;
64877;SDS011;51370;45.144;36.784;2022-07-21T08:26:34;4.20;;;1.33;;
64877;SDS011;51370;45.144;36.784;2022-07-21T08:29:00;4.30;;;1.70;;
64877;SDS011;51370;45.144;36.784;2022-07-21T08:31:26;2.28;;;1.60;;
64877;SDS011;51370;45.144;36.784;2022-07-21T08:33:52;3.10;;;2.05;;
64877;SDS011;51370;45.144;36.784;2022-07-21T08:36:19;6.10;;;1.95;;
64877;SDS011;51370;45.144;36.784;2022-07-21T08:38:45;4.70;;;1.80;;
64877;SDS011;51370;45.144;36.784;2022-07-21T08:41:11;4.30;;;2.22;;
64877;SDS011;51370;45.144;36.784;2022-07-21T08:43:38;2.40;;;1.90;;
64877;SDS011;51370;45.144;36.784;2022-07-21T08:46:05;5.35;;;2.30;;
64877;SDS011;51370;45.144;36.784;2022-07-21T08:48:31;4.45;;;2.78;;
64877;SDS011;51370;45.144;36.784;2022-07-21T08:50:57;3.70;;;2.88;;
64877;SDS011;51370;45.144;36.784;2022-07-21T08:53:24;3.85;;;2.70;;
64877;SDS011;51370;45.144;36.784;2022-07-21T08:55:51;6.10;;;3.65;;
64877;SDS011;51370;45.144;36.784;2022-07-21T08:58:17;3.80;;;3.22;;
64877;SDS011;51370;45.144;36.784;2022-07-21T09:00:48;6.00;;;3.25;;
64877;SDS011;51370;45.144;36.784;2022-07-21T09:03:16;4.20;;;2.85;;
64877;SDS011;51370;45.144;36.784;2022-07-21T09:08:36;8.82;;;3.42;;
64877;SDS011;51370;45.144;36.784;2022-07-21T09:13:41;4.65;;;3.30;;
64877;SDS011;51370;45.144;36.784;2022-07-21T09:16:08;5.40;;;3.75;;
64877;SDS011;51370;45.144;36.784;2022-07-21T09:18:46;3.92;;;3.40;;
64877;SDS011;51370;45.144;36.784;2022-07-21T09:21:17;4.63;;;3.72;;
64877;SDS011;51370;45.144;36.784;2022-07-21T09:23:43;15.23;;;3.78;;
64877;SDS011;51370;45.144;36.784;2022-07-21T09:26:09;3.78;;;3.30;;
64877;SDS011;51370;45.144;36.784;2022-07-21T09:28:36;4.93;;;3.60;;
64877;SDS011;51370;45.144;36.784;2022-07-21T09:31:03;6.10;;;3.72;;
64877;SDS011;51370;45.144;36.784;2022-07-21T09:36:02;3.72;;;3.30;;
64877;SDS011;51370;45.144;36.784;2022-07-21T09:38:38;6.22;;;3.30;;
64877;SDS011;51370;45.144;36.784;2022-07-21T09:41:24;5.13;;;2.70;;
64877;SDS011;51370;45.144;36.784;2022-07-21T09:43:55;2.88;;;2.38;;
64877;SDS011;51370;45.144;36.784;2022-07-21T09:46:29;3.35;;;2.45;;
64877;SDS011;51370;45.144;36.784;2022-07-21T09:48:56;3.03;;;2.72;;
64877;SDS011;51370;45.144;36.784;2022-07-21T09:51:33;3.08;;;2.75;;
64877;SDS011;51370;45.144;36.784;2022-07-21T09:54:04;5.25;;;2.95;;
64877;SDS011;51370;45.144;36.784;2022-07-21T09:56:32;5.43;;;3.20;;
64877;SDS011;51370;45.144;36.784;2022-07-21T09:59:00;4.00;;;2.97;;
64877;SDS011;51370;45.144;36.784;2022-07-21T10:01:27;2.65;;;2.25;;
64877;SDS011;51370;45.144;36.784;2022-07-21T10:03:55;4.82;;;2.80;;
64877;SDS011;51370;45.144;36.784;2022-07-21T10:06:24;7.30;;;4.00;;
64877;SDS011;51370;45.144;36.784;2022-07-21T10:08:57;2.90;;;2.50;;
64877;SDS011;51370;45.144;36.784;2022-07-21T10:11:25;4.50;;;2.60;;
64877;SDS011;51370;45.144;36.784;2022-07-21T10:13:52;3.13;;;2.45;;
64877;SDS011;51370;45.144;36.784;2022-07-21T10:16:19;3.72;;;2.85;;
64877;SDS011;51370;45.144;36.784;2022-07-21T10:22:01;2.80;;;1.83;;
64877;SDS011;51370;45.144;36.784;2022-07-21T10:24:33;2.42;;;2.10;;
64877;SDS011;51370;45.144;36.784;2022-07-21T10:32:16;3.22;;;2.45;;
64877;SDS011;51370;45.144;36.784;2022-07-21T10:34:43;2.40;;;2.00;;
64877;SDS011;51370;45.144;36.784;2022-07-21T10:37:10;2.33;;;2.08;;
64877;SDS011;51370;45.144;36.784;2022-07-21T10:39:56;2.58;;;2.10;;
64877;SDS011;51370;45.144;36.784;2022-07-21T10:42:22;7.15;;;5.65;;
64877;SDS011;51370;45.144;36.784;2022-07-21T10:44:48;2.00;;;1.80;;
64877;SDS011;51370;45.144;36.784;2022-07-21T10:47:19;2.38;;;1.67;;
64877;SDS011;51370;45.144;36.784;2022-07-21T11:00:28;2.33;;;1.38;;
64877;SDS011;51370;45.144;36.784;2022-07-21T11:03:00;1.45;;;1.35;;
64877;SDS011;51370;45.144;36.784;2022-07-21T11:05:32;2.28;;;1.30;;
64877;SDS011;51370;45.144;36.784;2022-07-21T11:08:15;1.05;;;1.05;;
64877;SDS011;51370;45.144;36.784;2022-07-21T11:10:47;2.25;;;1.13;;
64877;SDS011;51370;45.144;36.784;2022-07-21T11:13:16;1.00;;;1.00;;
64877;SDS011;51370;45.144;36.784;2022-07-21T11:18:26;1.17;;;0.80;;
64877;SDS011;51370;45.144;36.784;2022-07-21T11:21:26;0.98;;;0.90;;
64877;SDS011;51370;45.144;36.784;2022-07-21T11:23:49;0.82;;;0.82;;
64877;SDS011;51370;45.144;36.784;2022-07-21T11:26:16;1.05;;;0.80;;
64877;SDS011;51370;45.144;36.784;2022-07-21T11:28:44;1.15;;;1.05;;
64877;SDS011;51370;45.144;36.784;2022-07-21T11:31:14;1.10;;;0.98;;
64877;SDS011;51370;45.144;36.784;2022-07-21T11:33:49;0.80;;;0.80;;
64877;SDS011;51370;45.144;36.784;2022-07-21T11:36:26;0.70;;;0.70;;
64877;SDS011;51370;45.144;36.784;2022-07-21T11:39:06;0.63;;;0.63;;
64877;SDS011;51370;45.144;36.784;2022-07-21T11:41:34;1.10;;;1.00;;
64877;SDS011;51370;45.144;36.784;2022-07-21T11:44:02;1.67;;;0.90;;
64877;SDS011;51370;45.144;36.784;2022-07-21T11:46:46;1.75;;;0.80;;
64877;SDS011;51370;45.144;36.784;2022-07-21T11:49:13;1.75;;;0.90;;
64877;SDS011;51370;45.144;36.784;2022-07-21T11:51:49;0.70;;;0.70;;
64877;SDS011;51370;45.144;36.784;2022-07-21T11:54:27;0.90;;;0.90;;
64877;SDS011;51370;45.144;36.784;2022-07-21T11:56:58;0.73;;;0.73;;
64877;SDS011;51370;45.144;36.784;2022-07-21T11:59:26;1.20;;;1.00;;
64877;SDS011;51370;45.144;36.784;2022-07-21T12:01:57;0.80;;;0.80;;
64877;SDS011;51370;45.144;36.784;2022-07-21T12:07:03;1.17;;;1.08;;
64877;SDS011;51370;45.144;36.784;2022-07-21T12:09:33;1.13;;;1.02;;
64877;SDS011;51370;45.144;36.784;2022-07-21T12:11:59;0.80;;;0.80;;
64877;SDS011;51370;45.144;36.784;2022-07-21T12:14:38;1.10;;;1.00;;
64877;SDS011;51370;45.144;36.784;2022-07-21T12:17:16;1.40;;;1.23;;
64877;SDS011;51370;45.144;36.784;2022-07-21T12:19:56;1.13;;;1.02;;
64877;SDS011;51370;45.144;36.784;2022-07-21T12:22:41;2.30;;;1.00;;
64877;SDS011;51370;45.144;36.784;2022-07-21T12:25:10;2.40;;;1.00;;
64877;SDS011;51370;45.144;36.784;2022-07-21T12:27:37;1.35;;;1.25;;
64877;SDS011;51370;45.144;36.784;2022-07-21T12:30:07;1.58;;;1.45;;
64877;SDS011;51370;45.144;36.784;2022-07-21T12:32:40;1.40;;;1.30;;
64877;SDS011;51370;45.144;36.784;2022-07-21T12:35:21;1.63;;;1.10;;
64877;SDS011;51370;45.144;36.784;2022-07-21T12:40:27;1.92;;;1.33;;
64877;SDS011;51370;45.144;36.784;2022-07-21T12:43:05;1.48;;;0.98;;
64877;SDS011;51370;45.144;36.784;2022-07-21T12:45:56;1.52;;;1.20;;
64877;SDS011;51370;45.144;36.784;2022-07-21T12:48:28;1.70;;;1.15;;
64877;SDS011;51370;45.144;36.784;2022-07-21T12:53:44;1.35;;;1.08;;
64877;SDS011;51370;45.144;36.784;2022-07-21T12:56:12;1.85;;;1.60;;
64877;SDS011;51370;45.144;36.784;2022-07-21T12:58:43;1.63;;;1.00;;
64877;SDS011;51370;45.144;36.784;2022-07-21T13:01:09;1.23;;;1.13;;
64877;SDS011;51370;45.144;36.784;2022-07-21T13:03:36;1.27;;;1.17;;
64877;SDS011;51370;45.144;36.784;2022-07-21T13:06:04;2.15;;;1.00;;
64877;SDS011;51370;45.144;36.784;2022-07-21T13:08:32;0.98;;;0.98;;
64877;SDS011;51370;45.144;36.784;2022-07-21T13:10:59;1.38;;;1.27;;
64877;SDS011;51370;45.144;36.784;2022-07-21T13:13:26;1.35;;;1.25;;
64877;SDS011;51370;45.144;36.784;2022-07-21T13:15:53;2.38;;;0.93;;
64877;SDS011;51370;45.144;36.784;2022-07-21T13:18:20;1.13;;;1.00;;
64877;SDS011;51370;45.144;36.784;2022-07-21T13:20:49;1.13;;;1.02;;
64877;SDS011;51370;45.144;36.784;2022-07-21T13:23:16;1.58;;;0.90;;
64877;SDS011;51370;45.144;36.784;2022-07-21T13:25:42;3.13;;;1.08;;
64877;SDS011;51370;45.144;36.784;2022-07-21T13:28:08;1.10;;;0.90;;
64877;SDS011;51370;45.144;36.784;2022-07-21T13:30:34;1.05;;;0.93;;
64877;SDS011;51370;45.144;36.784;2022-07-21T13:33:00;2.00;;;0.93;;
64877;SDS011;51370;45.144;36.784;2022-07-21T13:35:26;1.75;;;0.98;;
64877;SDS011;51370;45.144;36.784;2022-07-21T13:37:53;1.20;;;1.00;;
64877;SDS011;51370;45.144;36.784;2022-07-21T13:40:20;0.85;;;0.80;;
64877;SDS011;51370;45.144;36.784;2022-07-21T13:42:46;0.80;;;0.80;;
64877;SDS011;51370;45.144;36.784;2022-07-21T13:45:12;0.73;;;0.70;;
64877;SDS011;51370;45.144;36.784;2022-07-21T13:47:40;0.80;;;0.80;;
64877;SDS011;51370;45.144;36.784;2022-07-21T13:50:06;0.80;;;0.80;;
64877;SDS011;51370;45.144;36.784;2022-07-21T13:52:32;3.10;;;0.90;;
64877;SDS011;51370;45.144;36.784;2022-07-21T13:54:59;0.88;;;0.77;;
64877;SDS011;51370;45.144;36.784;2022-07-21T13:57:25;0.90;;;0.90;;
64877;SDS011;51370;45.144;36.784;2022-07-21T13:59:51;0.90;;;0.90;;
64877;SDS011;51370;45.144;36.784;2022-07-21T14:02:17;1.15;;;0.90;;
64877;SDS011;51370;45.144;36.784;2022-07-21T14:04:44;1.23;;;0.80;;
64877;SDS011;51370;45.144;36.784;2022-07-21T14:07:10;0.70;;;0.70;;
64877;SDS011;51370;45.144;36.784;2022-07-21T14:09:39;0.80;;;0.80;;
64877;SDS011;51370;45.144;36.784;2022-07-21T14:12:06;0.95;;;0.77;;
64877;SDS011;51370;45.144;36.784;2022-07-21T14:14:32;0.85;;;0.70;;
64877;SDS011;51370;45.144;36.784;2022-07-21T14:16:58;1.15;;;0.75;;
64877;SDS011;51370;45.144;36.784;2022-07-21T14:19:24;0.73;;;0.73;;
64877;SDS011;51370;45.144;36.784;2022-07-21T14:21:51;0.82;;;0.80;;
64877;SDS011;51370;45.144;36.784;2022-07-21T14:24:17;0.60;;;0.60;;
64877;SDS011;51370;45.144;36.784;2022-07-21T14:27:01;0.70;;;0.70;;
64877;SDS011;51370;45.144;36.784;2022-07-21T14:29:27;0.93;;;0.85;;
64877;SDS011;51370;45.144;36.784;2022-07-21T14:31:54;1.08;;;0.80;;
64877;SDS011;51370;45.144;36.784;2022-07-21T14:34:20;1.60;;;0.63;;
64877;SDS011;51370;45.144;36.784;2022-07-21T14:36:47;0.70;;;0.70;;
64877;SDS011;51370;45.144;36.784;2022-07-21T14:39:14;0.80;;;0.80;;
64877;SDS011;51370;45.144;36.784;2022-07-21T14:41:40;0.75;;;0.75;;
64877;SDS011;51370;45.144;36.784;2022-07-21T14:44:07;1.15;;;0.80;;
64877;SDS011;51370;45.144;36.784;2022-07-21T14:46:33;0.75;;;0.75;;
64877;SDS011;51370;45.144;36.784;2022-07-21T14:48:59;0.80;;;0.80;;
64877;SDS011;51370;45.144;36.784;2022-07-21T14:51:25;2.53;;;0.80;;
64877;SDS011;51370;45.144;36.784;2022-07-21T14:53:52;0.80;;;0.68;;
64877;SDS011;51370;45.144;36.784;2022-07-21T14:56:18;0.80;;;0.80;;
64877;SDS011;51370;45.144;36.784;2022-07-21T14:58:44;1.45;;;0.80;;
64877;SDS011;51370;45.144;36.784;2022-07-21T15:01:10;0.90;;;0.90;;
64877;SDS011;51370;45.144;36.784;2022-07-21T15:03:36;1.33;;;1.00;;
64877;SDS011;51370;45.144;36.784;2022-07-21T15:06:02;2.90;;;0.77;;
64877;SDS011;51370;45.144;36.784;2022-07-21T15:08:31;0.60;;;0.60;;
64877;SDS011;51370;45.144;36.784;2022-07-21T15:10:57;0.77;;;0.70;;
64877;SDS011;51370;45.144;36.784;2022-07-21T15:13:24;0.70;;;0.70;;
64877;SDS011;51370;45.144;36.784;2022-07-21T15:15:57;1.27;;;0.70;;